Terminal Aerodrome Forecast
Issued by NWS

Home | Current Version | Previous Version | Text Only | Print | Product List | Glossary On
Versions: 1 2 3 4 5 6 7 8 9 10 11 12 13 14 15 16 17 18
000
FTUS43 KGRB 081400 AAB
TAFATW
TAF AMD
KATW 081402Z 0814/0912 30011G17KT P6SM BKN015 BKN120
     FM081900 30008KT P6SM VCSH SCT020 BKN050
     FM090100 28003KT P6SM SCT050 SCT100=

USA.gov is the U.S. government's official web portal to all federal, state and local government web resources and services.